sensor_id;sensor_type;location;lat;lon;timestamp;P1;durP1;ratioP1;P2;durP2;ratioP2
56653;SDS011;45096;52.302;4.634;2023-01-29T00:01:06;9.93;;;5.35;;
56653;SDS011;45096;52.302;4.634;2023-01-29T00:03:31;6.78;;;5.10;;
56653;SDS011;45096;52.302;4.634;2023-01-29T00:05:57;7.30;;;5.35;;
56653;SDS011;45096;52.302;4.634;2023-01-29T00:08:22;7.60;;;6.82;;
56653;SDS011;45096;52.302;4.634;2023-01-29T00:10:48;8.13;;;5.97;;
56653;SDS011;45096;52.302;4.634;2023-01-29T00:13:13;6.93;;;5.53;;
56653;SDS011;45096;52.302;4.634;2023-01-29T00:15:40;5.85;;;5.35;;
56653;SDS011;45096;52.302;4.634;2023-01-29T00:18:05;7.10;;;5.47;;
56653;SDS011;45096;52.302;4.634;2023-01-29T00:20:31;5.43;;;4.93;;
56653;SDS011;45096;52.302;4.634;2023-01-29T00:22:56;6.60;;;5.90;;
56653;SDS011;45096;52.302;4.634;2023-01-29T00:25:22;9.52;;;6.53;;
56653;SDS011;45096;52.302;4.634;2023-01-29T00:27:47;8.55;;;5.93;;
56653;SDS011;45096;52.302;4.634;2023-01-29T00:30:13;6.45;;;5.07;;
56653;SDS011;45096;52.302;4.634;2023-01-29T00:32:40;6.63;;;4.95;;
56653;SDS011;45096;52.302;4.634;2023-01-29T00:35:06;6.10;;;5.50;;
56653;SDS011;45096;52.302;4.634;2023-01-29T00:37:32;7.63;;;6.50;;
56653;SDS011;45096;52.302;4.634;2023-01-29T00:39:58;7.78;;;5.93;;
56653;SDS011;45096;52.302;4.634;2023-01-29T00:42:23;6.68;;;5.70;;
56653;SDS011;45096;52.302;4.634;2023-01-29T00:44:49;6.20;;;5.60;;
56653;SDS011;45096;52.302;4.634;2023-01-29T00:47:14;8.73;;;6.15;;
56653;SDS011;45096;52.302;4.634;2023-01-29T00:49:41;6.07;;;5.45;;
56653;SDS011;45096;52.302;4.634;2023-01-29T00:52:06;9.70;;;6.50;;
56653;SDS011;45096;52.302;4.634;2023-01-29T00:54:32;7.20;;;6.18;;
56653;SDS011;45096;52.302;4.634;2023-01-29T00:56:57;8.48;;;6.97;;
56653;SDS011;45096;52.302;4.634;2023-01-29T00:59:22;6.72;;;5.78;;
56653;SDS011;45096;52.302;4.634;2023-01-29T01:01:48;8.63;;;6.22;;
56653;SDS011;45096;52.302;4.634;2023-01-29T01:04:13;7.18;;;6.47;;
56653;SDS011;45096;52.302;4.634;2023-01-29T01:06:40;6.88;;;6.18;;
56653;SDS011;45096;52.302;4.634;2023-01-29T01:09:07;7.20;;;6.50;;
56653;SDS011;45096;52.302;4.634;2023-01-29T01:11:33;7.63;;;6.05;;
56653;SDS011;45096;52.302;4.634;2023-01-29T01:13:58;7.13;;;6.00;;
56653;SDS011;45096;52.302;4.634;2023-01-29T01:16:24;6.22;;;5.63;;
56653;SDS011;45096;52.302;4.634;2023-01-29T01:18:49;8.98;;;6.47;;
56653;SDS011;45096;52.302;4.634;2023-01-29T01:21:14;7.53;;;5.88;;
56653;SDS011;45096;52.302;4.634;2023-01-29T01:23:41;7.40;;;6.35;;
56653;SDS011;45096;52.302;4.634;2023-01-29T01:26:07;6.55;;;5.93;;
56653;SDS011;45096;52.302;4.634;2023-01-29T01:28:33;7.20;;;6.22;;
56653;SDS011;45096;52.302;4.634;2023-01-29T01:31:06;8.82;;;6.47;;
56653;SDS011;45096;52.302;4.634;2023-01-29T01:33:32;7.55;;;6.40;;
56653;SDS011;45096;52.302;4.634;2023-01-29T01:36:00;6.43;;;5.82;;
56653;SDS011;45096;52.302;4.634;2023-01-29T01:38:25;8.27;;;6.10;;
56653;SDS011;45096;52.302;4.634;2023-01-29T01:40:52;9.13;;;6.95;;
56653;SDS011;45096;52.302;4.634;2023-01-29T01:43:17;7.20;;;6.43;;
56653;SDS011;45096;52.302;4.634;2023-01-29T01:45:43;7.07;;;6.28;;
56653;SDS011;45096;52.302;4.634;2023-01-29T01:48:09;9.15;;;6.68;;
56653;SDS011;45096;52.302;4.634;2023-01-29T01:50:39;6.75;;;5.93;;
56653;SDS011;45096;52.302;4.634;2023-01-29T01:53:08;7.57;;;6.32;;
56653;SDS011;45096;52.302;4.634;2023-01-29T01:55:34;8.40;;;7.50;;
56653;SDS011;45096;52.302;4.634;2023-01-29T01:58:05;7.28;;;6.45;;
56653;SDS011;45096;52.302;4.634;2023-01-29T02:00:33;7.72;;;6.93;;
56653;SDS011;45096;52.302;4.634;2023-01-29T02:02:58;7.82;;;6.47;;
56653;SDS011;45096;52.302;4.634;2023-01-29T02:05:25;7.57;;;6.70;;
56653;SDS011;45096;52.302;4.634;2023-01-29T02:07:51;7.53;;;6.15;;
56653;SDS011;45096;52.302;4.634;2023-01-29T02:10:16;7.22;;;6.43;;
56653;SDS011;45096;52.302;4.634;2023-01-29T02:12:42;7.88;;;5.85;;
56653;SDS011;45096;52.302;4.634;2023-01-29T02:15:10;8.85;;;6.75;;
56653;SDS011;45096;52.302;4.634;2023-01-29T02:17:35;9.18;;;6.80;;
56653;SDS011;45096;52.302;4.634;2023-01-29T02:20:02;6.87;;;6.17;;
56653;SDS011;45096;52.302;4.634;2023-01-29T02:22:40;7.25;;;6.55;;
56653;SDS011;45096;52.302;4.634;2023-01-29T02:28:11;7.55;;;6.80;;
56653;SDS011;45096;52.302;4.634;2023-01-29T02:30:40;10.68;;;7.32;;
56653;SDS011;45096;52.302;4.634;2023-01-29T02:33:10;7.83;;;6.87;;
56653;SDS011;45096;52.302;4.634;2023-01-29T02:35:40;8.57;;;7.67;;
56653;SDS011;45096;52.302;4.634;2023-01-29T02:38:09;8.73;;;7.32;;
56653;SDS011;45096;52.302;4.634;2023-01-29T02:40:38;9.52;;;7.55;;
56653;SDS011;45096;52.302;4.634;2023-01-29T02:43:07;8.90;;;7.38;;
56653;SDS011;45096;52.302;4.634;2023-01-29T02:45:44;8.45;;;7.43;;
56653;SDS011;45096;52.302;4.634;2023-01-29T02:48:13;8.73;;;7.40;;
56653;SDS011;45096;52.302;4.634;2023-01-29T02:50:42;8.45;;;7.20;;
56653;SDS011;45096;52.302;4.634;2023-01-29T02:53:11;9.80;;;8.23;;
56653;SDS011;45096;52.302;4.634;2023-01-29T02:55:41;10.23;;;7.78;;
56653;SDS011;45096;52.302;4.634;2023-01-29T02:58:10;9.27;;;7.30;;
56653;SDS011;45096;52.302;4.634;2023-01-29T03:00:40;9.82;;;8.35;;
56653;SDS011;45096;52.302;4.634;2023-01-29T03:03:08;9.23;;;8.27;;
56653;SDS011;45096;52.302;4.634;2023-01-29T03:05:39;10.90;;;9.15;;
56653;SDS011;45096;52.302;4.634;2023-01-29T03:08:10;10.32;;;8.05;;
56653;SDS011;45096;52.302;4.634;2023-01-29T03:10:38;10.70;;;8.35;;
56653;SDS011;45096;52.302;4.634;2023-01-29T03:13:06;11.68;;;8.38;;
56653;SDS011;45096;52.302;4.634;2023-01-29T03:15:34;8.95;;;7.80;;
56653;SDS011;45096;52.302;4.634;2023-01-29T03:18:06;11.52;;;8.95;;
56653;SDS011;45096;52.302;4.634;2023-01-29T03:20:33;10.43;;;8.48;;
56653;SDS011;45096;52.302;4.634;2023-01-29T03:23:03;13.43;;;8.95;;
56653;SDS011;45096;52.302;4.634;2023-01-29T03:25:30;9.80;;;8.80;;
56653;SDS011;45096;52.302;4.634;2023-01-29T03:27:56;9.45;;;8.48;;
56653;SDS011;45096;52.302;4.634;2023-01-29T03:30:23;13.13;;;9.55;;
56653;SDS011;45096;52.302;4.634;2023-01-29T03:32:51;13.00;;;9.63;;
56653;SDS011;45096;52.302;4.634;2023-01-29T03:35:18;10.60;;;9.07;;
56653;SDS011;45096;52.302;4.634;2023-01-29T03:37:47;11.07;;;8.65;;
56653;SDS011;45096;52.302;4.634;2023-01-29T03:40:12;13.30;;;9.50;;
56653;SDS011;45096;52.302;4.634;2023-01-29T03:42:43;10.98;;;8.90;;
56653;SDS011;45096;52.302;4.634;2023-01-29T03:45:17;12.18;;;10.05;;
56653;SDS011;45096;52.302;4.634;2023-01-29T03:47:47;14.02;;;9.85;;
56653;SDS011;45096;52.302;4.634;2023-01-29T03:50:18;12.25;;;9.80;;
56653;SDS011;45096;52.302;4.634;2023-01-29T03:52:52;13.70;;;10.10;;
56653;SDS011;45096;52.302;4.634;2023-01-29T03:55:21;13.67;;;10.43;;
56653;SDS011;45096;52.302;4.634;2023-01-29T03:57:52;17.45;;;11.02;;
56653;SDS011;45096;52.302;4.634;2023-01-29T04:00:21;13.73;;;10.35;;
56653;SDS011;45096;52.302;4.634;2023-01-29T04:02:49;14.73;;;11.30;;
56653;SDS011;45096;52.302;4.634;2023-01-29T04:05:19;15.88;;;10.75;;
56653;SDS011;45096;52.302;4.634;2023-01-29T04:07:45;14.65;;;11.25;;
56653;SDS011;45096;52.302;4.634;2023-01-29T04:10:12;14.68;;;11.07;;
56653;SDS011;45096;52.302;4.634;2023-01-29T04:12:40;14.93;;;11.35;;
56653;SDS011;45096;52.302;4.634;2023-01-29T04:15:09;16.13;;;11.48;;
56653;SDS011;45096;52.302;4.634;2023-01-29T04:17:38;14.60;;;12.07;;
56653;SDS011;45096;52.302;4.634;2023-01-29T04:20:05;16.30;;;12.07;;
56653;SDS011;45096;52.302;4.634;2023-01-29T04:22:33;16.10;;;11.52;;
56653;SDS011;45096;52.302;4.634;2023-01-29T04:24:59;17.17;;;11.15;;
56653;SDS011;45096;52.302;4.634;2023-01-29T04:27:29;14.75;;;11.18;;
56653;SDS011;45096;52.302;4.634;2023-01-29T04:30:02;18.85;;;12.55;;
56653;SDS011;45096;52.302;4.634;2023-01-29T04:32:34;18.33;;;12.52;;
56653;SDS011;45096;52.302;4.634;2023-01-29T04:35:09;17.90;;;12.82;;
56653;SDS011;45096;52.302;4.634;2023-01-29T04:37:46;14.65;;;11.35;;
56653;SDS011;45096;52.302;4.634;2023-01-29T04:40:17;19.27;;;12.52;;
56653;SDS011;45096;52.302;4.634;2023-01-29T04:42:47;18.85;;;12.98;;
56653;SDS011;45096;52.302;4.634;2023-01-29T04:45:15;17.48;;;13.07;;
56653;SDS011;45096;52.302;4.634;2023-01-29T04:47:46;17.05;;;12.57;;
56653;SDS011;45096;52.302;4.634;2023-01-29T04:50:13;21.77;;;13.73;;
56653;SDS011;45096;52.302;4.634;2023-01-29T04:52:46;17.77;;;13.32;;
56653;SDS011;45096;52.302;4.634;2023-01-29T04:55:14;17.20;;;11.98;;
56653;SDS011;45096;52.302;4.634;2023-01-29T04:57:45;18.52;;;13.52;;
56653;SDS011;45096;52.302;4.634;2023-01-29T05:00:16;17.73;;;12.52;;
56653;SDS011;45096;52.302;4.634;2023-01-29T05:02:42;19.63;;;13.02;;
56653;SDS011;45096;52.302;4.634;2023-01-29T05:05:09;18.67;;;12.73;;
56653;SDS011;45096;52.302;4.634;2023-01-29T05:07:35;17.40;;;12.80;;
56653;SDS011;45096;52.302;4.634;2023-01-29T05:10:04;19.70;;;13.80;;
56653;SDS011;45096;52.302;4.634;2023-01-29T05:12:30;18.20;;;13.02;;
56653;SDS011;45096;52.302;4.634;2023-01-29T05:14:56;20.13;;;13.18;;
56653;SDS011;45096;52.302;4.634;2023-01-29T05:17:25;19.02;;;12.90;;
56653;SDS011;45096;52.302;4.634;2023-01-29T05:19:50;20.63;;;13.57;;
56653;SDS011;45096;52.302;4.634;2023-01-29T05:22:17;18.47;;;13.07;;
56653;SDS011;45096;52.302;4.634;2023-01-29T05:24:43;17.40;;;12.75;;
56653;SDS011;45096;52.302;4.634;2023-01-29T05:27:09;15.82;;;12.70;;
56653;SDS011;45096;52.302;4.634;2023-01-29T05:29:41;16.30;;;12.10;;
56653;SDS011;45096;52.302;4.634;2023-01-29T05:32:09;18.17;;;13.05;;
56653;SDS011;45096;52.302;4.634;2023-01-29T05:34:35;19.45;;;12.88;;
56653;SDS011;45096;52.302;4.634;2023-01-29T05:37:00;15.73;;;11.83;;
56653;SDS011;45096;52.302;4.634;2023-01-29T05:39:26;15.35;;;11.65;;
56653;SDS011;45096;52.302;4.634;2023-01-29T05:41:51;22.70;;;13.10;;
56653;SDS011;45096;52.302;4.634;2023-01-29T05:44:18;20.50;;;11.80;;
56653;SDS011;45096;52.302;4.634;2023-01-29T05:46:43;20.35;;;13.25;;
56653;SDS011;45096;52.302;4.634;2023-01-29T05:49:09;16.52;;;12.57;;
56653;SDS011;45096;52.302;4.634;2023-01-29T05:51:34;18.33;;;11.75;;
56653;SDS011;45096;52.302;4.634;2023-01-29T05:53:59;16.20;;;12.10;;
56653;SDS011;45096;52.302;4.634;2023-01-29T05:56:25;18.75;;;12.68;;
56653;SDS011;45096;52.302;4.634;2023-01-29T05:58:50;18.17;;;13.00;;
56653;SDS011;45096;52.302;4.634;2023-01-29T06:01:18;17.02;;;11.82;;
56653;SDS011;45096;52.302;4.634;2023-01-29T06:03:45;18.73;;;12.65;;
56653;SDS011;45096;52.302;4.634;2023-01-29T06:06:10;19.85;;;13.45;;
56653;SDS011;45096;52.302;4.634;2023-01-29T06:08:36;19.80;;;13.85;;
56653;SDS011;45096;52.302;4.634;2023-01-29T06:11:01;19.17;;;12.82;;
56653;SDS011;45096;52.302;4.634;2023-01-29T06:13:27;19.65;;;12.77;;
56653;SDS011;45096;52.302;4.634;2023-01-29T06:15:52;19.20;;;12.70;;
56653;SDS011;45096;52.302;4.634;2023-01-29T06:18:19;17.13;;;12.15;;
56653;SDS011;45096;52.302;4.634;2023-01-29T06:20:44;18.70;;;12.85;;
56653;SDS011;45096;52.302;4.634;2023-01-29T06:23:10;18.42;;;14.02;;
56653;SDS011;45096;52.302;4.634;2023-01-29T06:25:35;18.15;;;13.43;;
56653;SDS011;45096;52.302;4.634;2023-01-29T06:28:01;16.02;;;12.48;;
56653;SDS011;45096;52.302;4.634;2023-01-29T06:30:26;19.35;;;12.20;;
56653;SDS011;45096;52.302;4.634;2023-01-29T06:32:55;20.20;;;13.90;;
56653;SDS011;45096;52.302;4.634;2023-01-29T06:35:21;19.25;;;13.55;;
56653;SDS011;45096;52.302;4.634;2023-01-29T06:37:47;21.42;;;12.77;;
56653;SDS011;45096;52.302;4.634;2023-01-29T06:40:12;22.63;;;13.43;;
56653;SDS011;45096;52.302;4.634;2023-01-29T06:42:38;20.45;;;13.57;;
56653;SDS011;45096;52.302;4.634;2023-01-29T06:45:03;19.48;;;13.38;;
56653;SDS011;45096;52.302;4.634;2023-01-29T06:47:29;22.67;;;14.48;;
56653;SDS011;45096;52.302;4.634;2023-01-29T06:49:54;22.98;;;15.60;;
56653;SDS011;45096;52.302;4.634;2023-01-29T06:52:21;19.98;;;13.65;;
56653;SDS011;45096;52.302;4.634;2023-01-29T06:54:47;20.58;;;14.40;;
56653;SDS011;45096;52.302;4.634;2023-01-29T06:57:12;20.75;;;14.77;;
56653;SDS011;45096;52.302;4.634;2023-01-29T06:59:38;18.98;;;13.57;;
56653;SDS011;45096;52.302;4.634;2023-01-29T07:02:03;21.38;;;15.27;;
56653;SDS011;45096;52.302;4.634;2023-01-29T07:04:29;20.58;;;14.73;;
56653;SDS011;45096;52.302;4.634;2023-01-29T07:06:54;22.48;;;14.85;;
56653;SDS011;45096;52.302;4.634;2023-01-29T07:09:21;19.77;;;13.90;;
56653;SDS011;45096;52.302;4.634;2023-01-29T07:11:46;21.08;;;14.35;;
56653;SDS011;45096;52.302;4.634;2023-01-29T07:14:12;22.98;;;15.02;;
56653;SDS011;45096;52.302;4.634;2023-01-29T07:16:37;22.02;;;13.68;;
56653;SDS011;45096;52.302;4.634;2023-01-29T07:19:03;20.48;;;13.88;;
56653;SDS011;45096;52.302;4.634;2023-01-29T07:21:28;21.13;;;14.38;;
56653;SDS011;45096;52.302;4.634;2023-01-29T07:23:53;22.10;;;14.77;;
56653;SDS011;45096;52.302;4.634;2023-01-29T07:26:20;19.77;;;14.60;;
56653;SDS011;45096;52.302;4.634;2023-01-29T07:28:46;20.67;;;14.82;;
56653;SDS011;45096;52.302;4.634;2023-01-29T07:31:12;22.98;;;15.00;;
56653;SDS011;45096;52.302;4.634;2023-01-29T07:33:38;20.80;;;14.57;;
56653;SDS011;45096;52.302;4.634;2023-01-29T07:36:06;22.77;;;14.73;;
56653;SDS011;45096;52.302;4.634;2023-01-29T07:38:31;23.40;;;14.43;;
56653;SDS011;45096;52.302;4.634;2023-01-29T07:40:57;20.52;;;14.75;;
56653;SDS011;45096;52.302;4.634;2023-01-29T07:43:24;20.65;;;13.45;;
56653;SDS011;45096;52.302;4.634;2023-01-29T07:45:49;19.02;;;13.88;;
56653;SDS011;45096;52.302;4.634;2023-01-29T07:48:15;20.65;;;14.07;;
56653;SDS011;45096;52.302;4.634;2023-01-29T07:50:40;19.95;;;14.02;;
56653;SDS011;45096;52.302;4.634;2023-01-29T07:53:05;21.30;;;14.60;;
56653;SDS011;45096;52.302;4.634;2023-01-29T07:55:31;21.97;;;15.13;;
56653;SDS011;45096;52.302;4.634;2023-01-29T07:57:58;21.42;;;15.43;;
56653;SDS011;45096;52.302;4.634;2023-01-29T08:00:25;24.40;;;15.50;;
56653;SDS011;45096;52.302;4.634;2023-01-29T08:02:51;20.30;;;14.30;;
56653;SDS011;45096;52.302;4.634;2023-01-29T08:05:16;20.40;;;14.70;;
56653;SDS011;45096;52.302;4.634;2023-01-29T08:07:42;24.27;;;16.38;;
56653;SDS011;45096;52.302;4.634;2023-01-29T08:10:08;23.10;;;14.45;;
56653;SDS011;45096;52.302;4.634;2023-01-29T08:12:34;21.80;;;15.40;;
56653;SDS011;45096;52.302;4.634;2023-01-29T08:14:59;18.67;;;14.15;;
56653;SDS011;45096;52.302;4.634;2023-01-29T08:17:26;21.83;;;14.95;;
56653;SDS011;45096;52.302;4.634;2023-01-29T08:19:51;22.30;;;16.23;;
56653;SDS011;45096;52.302;4.634;2023-01-29T08:22:17;24.63;;;15.90;;
56653;SDS011;45096;52.302;4.634;2023-01-29T08:24:42;21.80;;;15.32;;
56653;SDS011;45096;52.302;4.634;2023-01-29T08:27:08;22.30;;;15.70;;
56653;SDS011;45096;52.302;4.634;2023-01-29T08:29:33;22.15;;;15.55;;
56653;SDS011;45096;52.302;4.634;2023-01-29T08:31:58;23.17;;;15.52;;
56653;SDS011;45096;52.302;4.634;2023-01-29T08:34:25;23.60;;;16.42;;
56653;SDS011;45096;52.302;4.634;2023-01-29T08:36:51;22.10;;;15.50;;
56653;SDS011;45096;52.302;4.634;2023-01-29T08:39:16;23.23;;;15.40;;
56653;SDS011;45096;52.302;4.634;2023-01-29T08:41:42;24.25;;;16.63;;
56653;SDS011;45096;52.302;4.634;2023-01-29T08:44:08;24.13;;;16.15;;
56653;SDS011;45096;52.302;4.634;2023-01-29T08:46:33;22.83;;;15.50;;
56653;SDS011;45096;52.302;4.634;2023-01-29T08:48:58;23.25;;;15.18;;
56653;SDS011;45096;52.302;4.634;2023-01-29T08:51:25;21.33;;;15.10;;
56653;SDS011;45096;52.302;4.634;2023-01-29T08:53:51;24.00;;;17.43;;
56653;SDS011;45096;52.302;4.634;2023-01-29T08:56:16;22.17;;;16.17;;
56653;SDS011;45096;52.302;4.634;2023-01-29T08:58:42;23.38;;;15.50;;
56653;SDS011;45096;52.302;4.634;2023-01-29T09:01:08;23.67;;;15.55;;
56653;SDS011;45096;52.302;4.634;2023-01-29T09:03:34;22.48;;;15.20;;
56653;SDS011;45096;52.302;4.634;2023-01-29T09:05:59;23.48;;;15.50;;
56653;SDS011;45096;52.302;4.634;2023-01-29T09:08:26;20.77;;;15.18;;
56653;SDS011;45096;52.302;4.634;2023-01-29T09:10:51;27.80;;;16.17;;
56653;SDS011;45096;52.302;4.634;2023-01-29T09:13:17;22.20;;;15.93;;
56653;SDS011;45096;52.302;4.634;2023-01-29T09:15:42;24.02;;;15.05;;
56653;SDS011;45096;52.302;4.634;2023-01-29T09:18:08;22.52;;;14.60;;
56653;SDS011;45096;52.302;4.634;2023-01-29T09:20:33;27.55;;;16.38;;
56653;SDS011;45096;52.302;4.634;2023-01-29T09:23:02;24.25;;;15.07;;
56653;SDS011;45096;52.302;4.634;2023-01-29T09:25:29;23.52;;;15.43;;
56653;SDS011;45096;52.302;4.634;2023-01-29T09:27:55;22.23;;;14.73;;
56653;SDS011;45096;52.302;4.634;2023-01-29T09:30:20;19.83;;;15.32;;
56653;SDS011;45096;52.302;4.634;2023-01-29T09:32:46;21.48;;;15.98;;
56653;SDS011;45096;52.302;4.634;2023-01-29T09:35:11;20.90;;;14.43;;
56653;SDS011;45096;52.302;4.634;2023-01-29T09:37:37;22.48;;;15.02;;
56653;SDS011;45096;52.302;4.634;2023-01-29T09:40:02;23.65;;;15.02;;
56653;SDS011;45096;52.302;4.634;2023-01-29T09:42:30;21.77;;;14.00;;
56653;SDS011;45096;52.302;4.634;2023-01-29T09:45:03;24.88;;;15.43;;
56653;SDS011;45096;52.302;4.634;2023-01-29T09:47:32;22.08;;;13.60;;
56653;SDS011;45096;52.302;4.634;2023-01-29T09:49:59;19.40;;;12.95;;
56653;SDS011;45096;52.302;4.634;2023-01-29T09:52:26;21.55;;;14.07;;
56653;SDS011;45096;52.302;4.634;2023-01-29T09:54:56;20.77;;;13.60;;
56653;SDS011;45096;52.302;4.634;2023-01-29T09:57:28;20.52;;;14.25;;
56653;SDS011;45096;52.302;4.634;2023-01-29T10:00:00;19.50;;;13.32;;
56653;SDS011;45096;52.302;4.634;2023-01-29T10:02:32;21.92;;;13.57;;
56653;SDS011;45096;52.302;4.634;2023-01-29T10:05:25;20.67;;;13.45;;
56653;SDS011;45096;52.302;4.634;2023-01-29T10:08:09;20.60;;;14.63;;
56653;SDS011;45096;52.302;4.634;2023-01-29T10:10:45;20.80;;;14.55;;
56653;SDS011;45096;52.302;4.634;2023-01-29T10:13:18;21.67;;;13.68;;
56653;SDS011;45096;52.302;4.634;2023-01-29T10:15:58;18.88;;;12.07;;
56653;SDS011;45096;52.302;4.634;2023-01-29T10:18:53;18.70;;;11.68;;
56653;SDS011;45096;52.302;4.634;2023-01-29T10:24:19;12.05;;;9.23;;
56653;SDS011;45096;52.302;4.634;2023-01-29T10:26:48;14.30;;;8.90;;
56653;SDS011;45096;52.302;4.634;2023-01-29T10:29:17;13.27;;;8.32;;
56653;SDS011;45096;52.302;4.634;2023-01-29T10:31:43;12.05;;;8.35;;
56653;SDS011;45096;52.302;4.634;2023-01-29T10:34:11;8.57;;;7.55;;
56653;SDS011;45096;52.302;4.634;2023-01-29T10:36:39;10.02;;;8.02;;
56653;SDS011;45096;52.302;4.634;2023-01-29T10:39:08;13.65;;;8.32;;
56653;SDS011;45096;52.302;4.634;2023-01-29T10:41:46;13.10;;;7.70;;
56653;SDS011;45096;52.302;4.634;2023-01-29T10:44:22;10.27;;;8.18;;
56653;SDS011;45096;52.302;4.634;2023-01-29T10:46:59;10.77;;;7.75;;
56653;SDS011;45096;52.302;4.634;2023-01-29T10:49:36;9.27;;;6.85;;
56653;SDS011;45096;52.302;4.634;2023-01-29T10:52:14;8.80;;;6.22;;
56653;SDS011;45096;52.302;4.634;2023-01-29T10:54:48;9.85;;;5.88;;
56653;SDS011;45096;52.302;4.634;2023-01-29T10:57:27;11.48;;;8.18;;
56653;SDS011;45096;52.302;4.634;2023-01-29T11:00:06;8.93;;;6.90;;
56653;SDS011;45096;52.302;4.634;2023-01-29T11:02:33;6.50;;;5.77;;
56653;SDS011;45096;52.302;4.634;2023-01-29T11:04:58;9.10;;;6.85;;
56653;SDS011;45096;52.302;4.634;2023-01-29T11:07:24;11.98;;;6.53;;
56653;SDS011;45096;52.302;4.634;2023-01-29T11:09:51;11.18;;;7.07;;
56653;SDS011;45096;52.302;4.634;2023-01-29T11:12:20;10.18;;;6.80;;
56653;SDS011;45096;52.302;4.634;2023-01-29T11:14:47;13.75;;;8.45;;
56653;SDS011;45096;52.302;4.634;2023-01-29T11:17:15;15.02;;;10.25;;
56653;SDS011;45096;52.302;4.634;2023-01-29T11:19:41;16.75;;;10.55;;
56653;SDS011;45096;52.302;4.634;2023-01-29T11:22:11;17.48;;;11.05;;
56653;SDS011;45096;52.302;4.634;2023-01-29T11:24:37;20.55;;;12.65;;
56653;SDS011;45096;52.302;4.634;2023-01-29T11:27:12;25.05;;;13.75;;
56653;SDS011;45096;52.302;4.634;2023-01-29T11:29:38;19.17;;;13.68;;
56653;SDS011;45096;52.302;4.634;2023-01-29T11:32:06;20.30;;;13.77;;
56653;SDS011;45096;52.302;4.634;2023-01-29T11:34:34;20.10;;;13.93;;
56653;SDS011;45096;52.302;4.634;2023-01-29T11:36:59;19.42;;;13.68;;
56653;SDS011;45096;52.302;4.634;2023-01-29T11:39:26;23.80;;;14.75;;
56653;SDS011;45096;52.302;4.634;2023-01-29T11:41:54;22.73;;;15.07;;
56653;SDS011;45096;52.302;4.634;2023-01-29T11:44:21;23.02;;;14.90;;
56653;SDS011;45096;52.302;4.634;2023-01-29T11:46:51;25.02;;;16.98;;
56653;SDS011;45096;52.302;4.634;2023-01-29T11:49:21;26.27;;;16.13;;
56653;SDS011;45096;52.302;4.634;2023-01-29T11:51:53;27.13;;;16.33;;
56653;SDS011;45096;52.302;4.634;2023-01-29T11:54:20;31.17;;;16.30;;
56653;SDS011;45096;52.302;4.634;2023-01-29T11:56:49;26.38;;;17.25;;
56653;SDS011;45096;52.302;4.634;2023-01-29T11:59:20;26.58;;;17.75;;
56653;SDS011;45096;52.302;4.634;2023-01-29T12:01:53;32.58;;;17.17;;
56653;SDS011;45096;52.302;4.634;2023-01-29T12:04:19;28.08;;;17.88;;
56653;SDS011;45096;52.302;4.634;2023-01-29T12:06:45;28.65;;;17.52;;
56653;SDS011;45096;52.302;4.634;2023-01-29T12:09:14;26.23;;;16.95;;
56653;SDS011;45096;52.302;4.634;2023-01-29T12:11:41;25.40;;;17.05;;
56653;SDS011;45096;52.302;4.634;2023-01-29T12:14:19;27.10;;;17.77;;
56653;SDS011;45096;52.302;4.634;2023-01-29T12:16:49;27.52;;;17.45;;
56653;SDS011;45096;52.302;4.634;2023-01-29T12:19:22;25.27;;;16.67;;
56653;SDS011;45096;52.302;4.634;2023-01-29T12:21:51;25.15;;;16.98;;
56653;SDS011;45096;52.302;4.634;2023-01-29T12:24:27;24.20;;;15.38;;
56653;SDS011;45096;52.302;4.634;2023-01-29T12:26:57;23.48;;;16.20;;
56653;SDS011;45096;52.302;4.634;2023-01-29T12:29:29;26.48;;;17.67;;
56653;SDS011;45096;52.302;4.634;2023-01-29T12:31:59;26.10;;;17.15;;
56653;SDS011;45096;52.302;4.634;2023-01-29T12:34:32;26.88;;;18.13;;
56653;SDS011;45096;52.302;4.634;2023-01-29T12:37:02;23.80;;;15.85;;
56653;SDS011;45096;52.302;4.634;2023-01-29T12:39:35;28.23;;;17.58;;
56653;SDS011;45096;52.302;4.634;2023-01-29T12:42:01;22.60;;;15.25;;
56653;SDS011;45096;52.302;4.634;2023-01-29T12:44:29;27.43;;;17.23;;
56653;SDS011;45096;52.302;4.634;2023-01-29T12:46:57;26.75;;;16.13;;
56653;SDS011;45096;52.302;4.634;2023-01-29T12:49:25;19.60;;;13.57;;
56653;SDS011;45096;52.302;4.634;2023-01-29T12:51:54;22.42;;;13.23;;
56653;SDS011;45096;52.302;4.634;2023-01-29T12:54:21;19.88;;;13.50;;
56653;SDS011;45096;52.302;4.634;2023-01-29T12:56:50;18.23;;;12.82;;
56653;SDS011;45096;52.302;4.634;2023-01-29T12:59:18;19.98;;;13.73;;
56653;SDS011;45096;52.302;4.634;2023-01-29T13:01:49;16.73;;;11.60;;
56653;SDS011;45096;52.302;4.634;2023-01-29T13:04:18;19.67;;;14.05;;
56653;SDS011;45096;52.302;4.634;2023-01-29T13:06:48;27.00;;;14.35;;
56653;SDS011;45096;52.302;4.634;2023-01-29T13:09:16;26.88;;;14.98;;
56653;SDS011;45096;52.302;4.634;2023-01-29T13:11:44;24.83;;;15.32;;
56653;SDS011;45096;52.302;4.634;2023-01-29T13:14:17;22.88;;;15.07;;
56653;SDS011;45096;52.302;4.634;2023-01-29T13:16:46;23.52;;;15.65;;
56653;SDS011;45096;52.302;4.634;2023-01-29T13:19:15;25.17;;;15.75;;
56653;SDS011;45096;52.302;4.634;2023-01-29T13:21:44;29.27;;;16.60;;
56653;SDS011;45096;52.302;4.634;2023-01-29T13:24:11;25.23;;;15.25;;
56653;SDS011;45096;52.302;4.634;2023-01-29T13:26:38;28.75;;;16.10;;
56653;SDS011;45096;52.302;4.634;2023-01-29T13:29:04;29.77;;;14.82;;
56653;SDS011;45096;52.302;4.634;2023-01-29T13:31:31;32.00;;;16.45;;
56653;SDS011;45096;52.302;4.634;2023-01-29T13:34:01;30.08;;;17.13;;
56653;SDS011;45096;52.302;4.634;2023-01-29T13:36:31;27.58;;;16.55;;
56653;SDS011;45096;52.302;4.634;2023-01-29T13:38:59;27.35;;;15.50;;
56653;SDS011;45096;52.302;4.634;2023-01-29T13:41:30;26.05;;;17.45;;
56653;SDS011;45096;52.302;4.634;2023-01-29T13:43:57;28.83;;;16.67;;
56653;SDS011;45096;52.302;4.634;2023-01-29T13:46:23;24.63;;;15.73;;
56653;SDS011;45096;52.302;4.634;2023-01-29T13:48:50;26.05;;;14.63;;
56653;SDS011;45096;52.302;4.634;2023-01-29T13:51:18;28.83;;;16.15;;
56653;SDS011;45096;52.302;4.634;2023-01-29T13:53:50;26.10;;;15.65;;
56653;SDS011;45096;52.302;4.634;2023-01-29T13:56:27;25.25;;;15.68;;
56653;SDS011;45096;52.302;4.634;2023-01-29T13:58:54;26.90;;;14.60;;
56653;SDS011;45096;52.302;4.634;2023-01-29T14:04:23;26.92;;;15.25;;
56653;SDS011;45096;52.302;4.634;2023-01-29T14:06:49;23.58;;;14.63;;
56653;SDS011;45096;52.302;4.634;2023-01-29T14:15:28;29.35;;;16.02;;
56653;SDS011;45096;52.302;4.634;2023-01-29T14:17:56;21.88;;;13.35;;
56653;SDS011;45096;52.302;4.634;2023-01-29T14:20:26;28.58;;;15.23;;
56653;SDS011;45096;52.302;4.634;2023-01-29T14:22:56;25.52;;;14.45;;
56653;SDS011;45096;52.302;4.634;2023-01-29T14:25:26;26.17;;;15.00;;
56653;SDS011;45096;52.302;4.634;2023-01-29T14:27:53;30.27;;;16.23;;
56653;SDS011;45096;52.302;4.634;2023-01-29T14:30:18;22.75;;;15.30;;
56653;SDS011;45096;52.302;4.634;2023-01-29T14:32:52;24.15;;;14.25;;
56653;SDS011;45096;52.302;4.634;2023-01-29T14:35:19;25.42;;;15.35;;
56653;SDS011;45096;52.302;4.634;2023-01-29T14:37:48;23.77;;;14.57;;
56653;SDS011;45096;52.302;4.634;2023-01-29T14:40:18;24.92;;;13.98;;
56653;SDS011;45096;52.302;4.634;2023-01-29T14:42:49;23.30;;;14.35;;
56653;SDS011;45096;52.302;4.634;2023-01-29T14:45:23;28.05;;;14.75;;
56653;SDS011;45096;52.302;4.634;2023-01-29T14:47:51;23.40;;;14.10;;